ETH779 RKSI-EDDF
Flight info
| Callsign | ETH779 |
|---|---|
| Flight time | N/A |
| Altitude | 28000 |
| Route | BINIL3H BINIL Y697 AGAVO/K0883S0840 A591 IKEKA W4 HCH W200 DOVIV W55 PAMRU W34 VYK B215 LEBOM W104 VEXEB W47 IDSOT W48 DKO/K0919S0920 W66 NUKTI B215 FKG A368 SALMO/K0904S0980 A368 SARIN/K0898F320 N161 ABDUN/K0898F340 N161 GASBI/N0487F340 N161 LEYLA N644 ADEKI DCT BADIR DCT LAGAS DCT FOQUS DCT SARPI UM10 GOKPA UL746 INB/N0488F360 UL746 ODERO DCT OPT DCT TEGRI DCT ARSIN DCT SUBEN DCT AKINI T161 DEBHI SPESA5B |
| Aircraft | MD11/H-SDE1E2E3FGHIJ2J3J4J5M1RWXY/LB1D1 |
Departure
| Time | 2026-05-05 03:57 |
|---|---|
| Airport | Incheon International Airport (RKSI) |
Arrival
| Time | N/A |
|---|---|
| Airport | Frankfurt Main Airport (EDDF) |
| Time | Latitude | Longitude | Altitude | Speed | Heading |
|---|---|---|---|---|---|
| 2026-05-05 03:33 | 37.47719 | 126.42414 | 39 ft | 0 kts | 54° |
| 2026-05-05 03:50 | 37.47709 | 126.42397 | 40 ft | 4 kts | 54° |
| 2026-05-05 03:50 | 37.47695 | 126.42372 | 39 ft | 4 kts | 56° |
| 2026-05-05 03:51 | 37.47684 | 126.42346 | 40 ft | 4 kts | 91° |
| 2026-05-05 03:51 | 37.47689 | 126.42324 | 40 ft | 4 kts | 139° |
| 2026-05-05 03:51 | 37.47709 | 126.42305 | 40 ft | 2 kts | 145° |
| 2026-05-05 03:51 | 37.47711 | 126.42304 | 40 ft | 0 kts | 145° |
| 2026-05-05 03:53 | 37.47709 | 126.42305 | 38 ft | 1 kts | 145° |
| 2026-05-05 03:53 | 37.47703 | 126.42307 | 40 ft | 1 kts | 165° |
| 2026-05-05 03:54 | 37.47697 | 126.42304 | 40 ft | 1 kts | 191° |
| 2026-05-05 03:54 | 37.47683 | 126.42293 | 40 ft | 4 kts | 216° |
| 2026-05-05 03:54 | 37.47655 | 126.42263 | 40 ft | 7 kts | 226° |
| 2026-05-05 03:54 | 37.47624 | 126.42202 | 38 ft | 11 kts | 236° |
| 2026-05-05 03:55 | 37.47573 | 126.42112 | 40 ft | 14 kts | 234° |
| 2026-05-05 03:55 | 37.47511 | 126.42005 | 40 ft | 16 kts | 233° |
| 2026-05-05 03:55 | 37.47445 | 126.41886 | 40 ft | 17 kts | 235° |
| 2026-05-05 03:55 | 37.47374 | 126.41757 | 40 ft | 19 kts | 235° |
| 2026-05-05 03:56 | 37.47300 | 126.41629 | 40 ft | 15 kts | 229° |
| 2026-05-05 03:56 | 37.47204 | 126.41624 | 40 ft | 30 kts | 149° |
| 2026-05-05 03:56 | 37.46895 | 126.41899 | 40 ft | 76 kts | 144° |
| 2026-05-05 03:56 | 37.46337 | 126.42396 | 39 ft | 120 kts | 145° |
| 2026-05-05 03:57 | 37.45532 | 126.43113 | 39 ft | 163 kts | 143° |
| 2026-05-05 03:57 | 37.44515 | 126.44035 | 160 ft | 188 kts | 145° |
| 2026-05-05 03:57 | 37.43463 | 126.45011 | 828 ft | 190 kts | 146° |
| 2026-05-05 03:57 | 37.42339 | 126.46000 | 1409 ft | 200 kts | 152° |
| 2026-05-05 03:58 | 37.41128 | 126.46870 | 2015 ft | 203 kts | 154° |
| 2026-05-05 03:58 | 37.39893 | 126.47750 | 2623 ft | 205 kts | 153° |
| 2026-05-05 03:58 | 37.38594 | 126.48486 | 3168 ft | 208 kts | 165° |
| 2026-05-05 03:58 | 37.37125 | 126.49008 | 3354 ft | 232 kts | 168° |
| 2026-05-05 03:59 | 37.35499 | 126.49544 | 3499 ft | 250 kts | 168° |
| 2026-05-05 03:59 | 37.33757 | 126.50116 | 3626 ft | 267 kts | 167° |
| 2026-05-05 03:59 | 37.31923 | 126.50724 | 3782 ft | 282 kts | 167° |
| 2026-05-05 03:59 | 37.30003 | 126.51287 | 4231 ft | 283 kts | 175° |
| 2026-05-05 04:00 | 37.28013 | 126.51214 | 4680 ft | 290 kts | 198° |
| 2026-05-05 04:00 | 37.26220 | 126.50085 | 5405 ft | 292 kts | 217° |
| 2026-05-05 04:00 | 37.25179 | 126.49009 | 5889 ft | 294 kts | 222° |
| 2026-05-05 04:00 | 37.23683 | 126.47237 | 6604 ft | 298 kts | 224° |
| 2026-05-05 04:01 | 37.22189 | 126.45413 | 7291 ft | 301 kts | 224° |
| 2026-05-05 04:01 | 37.20674 | 126.43566 | 7952 ft | 306 kts | 224° |
| 2026-05-05 04:01 | 37.18623 | 126.41091 | 8725 ft | 313 kts | 224° |
| 2026-05-05 04:01 | 37.17050 | 126.39207 | 9088 ft | 314 kts | 224° |
| 2026-05-05 04:02 | 37.15468 | 126.37322 | 9472 ft | 316 kts | 224° |
| 2026-05-05 04:02 | 37.14388 | 126.36039 | 9722 ft | 317 kts | 224° |
| 2026-05-05 04:02 | 37.12786 | 126.34112 | 9901 ft | 320 kts | 226° |
| 2026-05-05 04:02 | 37.11407 | 126.31968 | 10044 ft | 324 kts | 239° |
| 2026-05-05 04:03 | 37.10492 | 126.29307 | 10195 ft | 344 kts | 256° |
| 2026-05-05 04:03 | 37.10203 | 126.26297 | 10654 ft | 352 kts | 266° |
| 2026-05-05 04:03 | 37.10170 | 126.23217 | 11233 ft | 357 kts | 269° |
| 2026-05-05 04:03 | 37.10198 | 126.20094 | 11811 ft | 361 kts | 269° |
| 2026-05-05 04:04 | 37.10224 | 126.16939 | 12363 ft | 365 kts | 269° |
| 2026-05-05 04:04 | 37.10235 | 126.13750 | 12935 ft | 367 kts | 269° |
| 2026-05-05 04:04 | 37.10266 | 126.11411 | 13314 ft | 370 kts | 273° |
| 2026-05-05 04:04 | 37.10755 | 126.08334 | 13793 ft | 374 kts | 286° |
| 2026-05-05 04:05 | 37.11490 | 126.05797 | 14214 ft | 376 kts | 291° |
| 2026-05-05 04:05 | 37.12526 | 126.02773 | 14713 ft | 379 kts | 292° |
| 2026-05-05 04:05 | 37.13347 | 126.00485 | 15091 ft | 381 kts | 292° |
| 2026-05-05 04:05 | 37.14442 | 125.97433 | 15574 ft | 384 kts | 293° |
| 2026-05-05 04:06 | 37.15528 | 125.94372 | 16045 ft | 386 kts | 292° |
| 2026-05-05 04:06 | 37.16445 | 125.91753 | 16409 ft | 388 kts | 292° |
| 2026-05-05 04:06 | 37.16705 | 125.91006 | 16503 ft | 388 kts | 292° |
| 2026-05-05 04:06 | 37.17772 | 125.87938 | 16922 ft | 391 kts | 292° |
| 2026-05-05 04:07 | 37.18632 | 125.85438 | 17274 ft | 392 kts | 292° |
| 2026-05-05 04:07 | 37.19714 | 125.82276 | 17697 ft | 395 kts | 292° |
| 2026-05-05 04:07 | 37.20795 | 125.79094 | 18093 ft | 397 kts | 292° |
| 2026-05-05 04:07 | 37.21392 | 125.77333 | 18336 ft | 398 kts | 292° |
| 2026-05-05 04:08 | 37.22360 | 125.74475 | 18674 ft | 400 kts | 292° |
| 2026-05-05 04:08 | 37.23451 | 125.71259 | 19051 ft | 401 kts | 292° |
| 2026-05-05 04:08 | 37.24551 | 125.68021 | 19424 ft | 404 kts | 292° |
| 2026-05-05 04:08 | 37.25654 | 125.64773 | 19785 ft | 406 kts | 292° |
| 2026-05-05 04:09 | 37.26765 | 125.61499 | 20097 ft | 408 kts | 292° |
| 2026-05-05 04:09 | 37.27879 | 125.58216 | 20436 ft | 410 kts | 292° |
| 2026-05-05 04:09 | 37.28995 | 125.54917 | 20775 ft | 412 kts | 292° |
| 2026-05-05 04:09 | 37.30118 | 125.51593 | 21114 ft | 414 kts | 292° |
| 2026-05-05 04:10 | 37.30455 | 125.50597 | 21217 ft | 415 kts | 292° |
| 2026-05-05 04:10 | 37.30470 | 125.50551 | 21222 ft | 415 kts | 292° |
| 2026-05-05 04:10 | 37.31603 | 125.47199 | 21554 ft | 417 kts | 292° |
| 2026-05-05 04:10 | 37.32739 | 125.43832 | 21890 ft | 418 kts | 292° |
| 2026-05-05 04:11 | 37.33875 | 125.40458 | 22208 ft | 420 kts | 292° |
| 2026-05-05 04:11 | 37.34006 | 125.40069 | 22254 ft | 421 kts | 292° |
| 2026-05-05 04:12 | 37.34159 | 125.39614 | 22294 ft | 421 kts | 292° |
| 2026-05-05 04:12 | 37.35321 | 125.36160 | 22639 ft | 423 kts | 292° |
| 2026-05-05 04:12 | 37.36466 | 125.32753 | 22965 ft | 425 kts | 292° |
| 2026-05-05 04:13 | 37.37619 | 125.29313 | 23293 ft | 427 kts | 292° |
| 2026-05-05 04:13 | 37.38299 | 125.27284 | 23485 ft | 428 kts | 292° |
| 2026-05-05 04:14 | 37.38659 | 125.26186 | 23580 ft | 428 kts | 291° |
| 2026-05-05 04:14 | 37.39550 | 125.22557 | 23878 ft | 430 kts | 280° |
| 2026-05-05 04:14 | 37.39844 | 125.18892 | 24173 ft | 432 kts | 271° |
| 2026-05-05 04:15 | 37.39826 | 125.15107 | 24455 ft | 435 kts | 268° |
| 2026-05-05 04:15 | 37.39692 | 125.11298 | 24797 ft | 436 kts | 267° |
| 2026-05-05 04:15 | 37.39543 | 125.07469 | 25116 ft | 439 kts | 268° |
| 2026-05-05 04:15 | 37.39412 | 125.03639 | 25441 ft | 440 kts | 268° |